createdAt,value
2023-05-02T00:01:53.950Z,69.70
2023-05-02T00:03:58.809Z,69.80
2023-05-02T00:06:02.039Z,70.20
2023-05-02T00:08:04.939Z,69.70
2023-05-02T00:10:08.505Z,70.00
2023-05-02T00:12:11.238Z,70.30
2023-05-02T00:14:14.028Z,70.60
2023-05-02T00:16:18.142Z,71.40
2023-05-02T00:18:20.931Z,72.10
2023-05-02T00:20:25.600Z,72.40
2023-05-02T00:22:28.355Z,73.10
2023-05-02T00:24:31.109Z,72.90
2023-05-02T00:26:33.953Z,72.30
2023-05-02T00:28:36.755Z,72.30
2023-05-02T00:30:44.189Z,72.60
2023-05-02T00:32:46.994Z,73.30
2023-05-02T00:34:49.704Z,73.10
2023-05-02T00:36:53.763Z,72.90
2023-05-02T00:38:56.486Z,73.00
2023-05-02T00:40:59.179Z,73.50
2023-05-02T00:43:01.878Z,73.50
2023-05-02T00:45:06.410Z,74.10
2023-05-02T00:47:09.511Z,74.40
2023-05-02T00:49:15.116Z,75.10
2023-05-02T00:51:18.362Z,75.50
2023-05-02T00:53:22.965Z,75.70
2023-05-02T00:55:25.888Z,75.70
2023-05-02T00:57:28.605Z,75.70
2023-05-02T00:59:31.562Z,76.40
2023-05-02T01:01:41.022Z,76.40
2023-05-02T01:03:53.153Z,76.20
2023-05-02T01:06:07.682Z,75.50
2023-05-02T01:08:19.298Z,74.90
2023-05-02T01:10:33.988Z,74.80
2023-05-02T01:12:47.286Z,74.60
2023-05-02T01:14:54.892Z,75.20
2023-05-02T01:16:59.767Z,75.50
2023-05-02T01:19:06.839Z,75.80
2023-05-02T01:21:11.074Z,75.00
2023-05-02T01:23:24.110Z,75.30
2023-05-02T01:25:35.115Z,75.10
2023-05-02T01:27:48.734Z,75.50
2023-05-02T01:29:54.613Z,75.60
2023-05-02T01:31:59.052Z,76.10
2023-05-02T01:34:03.516Z,76.30
2023-05-02T01:36:08.356Z,76.40
2023-05-02T01:38:15.442Z,77.20
2023-05-02T01:40:22.540Z,77.90
2023-05-02T01:42:26.563Z,78.10
2023-05-02T01:44:31.344Z,78.40
2023-05-02T01:46:39.122Z,78.90
2023-05-02T01:48:45.640Z,78.80
2023-05-02T01:50:50.376Z,79.30
2023-05-02T01:52:54.700Z,79.40
2023-05-02T01:54:59.962Z,79.40
2023-05-02T01:57:06.167Z,80.00
2023-05-02T01:59:11.801Z,79.70
2023-05-02T02:01:15.824Z,79.40
2023-05-02T02:03:20.870Z,80.20
2023-05-02T02:05:25.430Z,80.80
2023-05-02T02:07:28.207Z,81.10
2023-05-02T02:09:31.414Z,81.70
2023-05-02T02:11:37.525Z,82.00
2023-05-02T02:13:46.246Z,82.10
2023-05-02T02:15:51.690Z,81.70
2023-05-02T02:18:01.179Z,81.80
2023-05-02T02:20:09.470Z,82.10
2023-05-02T02:22:14.542Z,82.20
2023-05-02T02:24:19.804Z,82.00
2023-05-02T02:26:23.515Z,82.00
2023-05-02T02:28:26.400Z,82.10
2023-05-02T02:30:29.509Z,82.00
2023-05-02T02:32:32.324Z,82.50
2023-05-02T02:34:35.205Z,82.60
2023-05-02T02:36:46.911Z,82.60
2023-05-02T02:38:58.094Z,82.40
2023-05-02T02:41:07.474Z,82.30
2023-05-02T02:43:18.116Z,82.10
2023-05-02T02:45:31.148Z,82.40
2023-05-02T02:47:43.191Z,82.70
2023-05-02T02:49:50.500Z,82.30
2023-05-02T02:52:03.734Z,82.40
2023-05-02T02:54:25.753Z,82.40
2023-05-02T02:56:36.130Z,82.30
2023-05-02T02:58:46.539Z,82.10
2023-05-02T03:00:50.734Z,82.50
2023-05-02T03:02:54.935Z,81.40
2023-05-02T03:04:58.803Z,81.50
2023-05-02T03:07:03.341Z,81.60
2023-05-02T03:09:06.142Z,82.00
2023-05-02T03:11:09.258Z,82.00
2023-05-02T03:13:12.133Z,82.00
2023-05-02T03:15:41.052Z,82.00
2023-05-02T03:17:43.902Z,81.70
2023-05-02T03:19:47.263Z,82.10
2023-05-02T03:21:50.095Z,81.50
2023-05-02T03:23:54.211Z,81.50
2023-05-02T03:25:57.135Z,81.30
2023-05-02T03:27:59.856Z,81.50
2023-05-02T03:30:02.792Z,82.20
2023-05-02T03:32:05.958Z,82.40
2023-05-02T03:34:08.796Z,82.60
2023-05-02T03:36:12.079Z,82.80
2023-05-02T03:38:14.854Z,83.20
2023-05-02T03:40:21.723Z,83.10
2023-05-02T03:42:25.519Z,82.80
2023-05-02T03:44:28.276Z,82.80
2023-05-02T03:46:31.314Z,82.30
2023-05-02T03:48:34.686Z,81.90
2023-05-02T03:50:37.444Z,81.90
2023-05-02T03:52:40.249Z,82.20
2023-05-02T03:54:43.762Z,82.70
2023-05-02T03:56:47.939Z,82.90
2023-05-02T03:58:50.736Z,82.90
2023-05-02T04:00:53.826Z,82.80
2023-05-02T04:02:56.642Z,83.60
2023-05-02T04:04:59.624Z,83.00
2023-05-02T04:07:02.431Z,82.90
2023-05-02T04:09:05.721Z,82.80
2023-05-02T04:11:08.445Z,82.50
2023-05-02T04:13:12.721Z,83.00
2023-05-02T04:15:15.576Z,83.60
2023-05-02T04:17:18.494Z,83.80
2023-05-02T04:19:21.435Z,83.90
2023-05-02T04:21:24.504Z,83.70
2023-05-02T04:23:27.358Z,83.60
2023-05-02T04:25:30.127Z,83.40
2023-05-02T04:27:32.874Z,82.90
2023-05-02T04:29:37.078Z,82.50
2023-05-02T04:31:40.389Z,82.20
2023-05-02T04:33:43.236Z,81.70
2023-05-02T04:35:46.237Z,81.90
2023-05-02T04:37:48.955Z,82.20
2023-05-02T04:39:51.725Z,82.50
2023-05-02T04:41:54.505Z,82.20
2023-05-02T04:43:57.251Z,83.10
2023-05-02T04:46:01.413Z,82.60
2023-05-02T04:48:04.584Z,82.80
2023-05-02T04:50:09.222Z,83.10
2023-05-02T04:52:12.331Z,82.60
2023-05-02T04:54:15.676Z,82.30
2023-05-02T04:56:18.435Z,82.50
2023-05-02T04:58:21.202Z,82.50
2023-05-02T05:00:24.314Z,81.90
2023-05-02T05:02:28.455Z,81.90
2023-05-02T05:04:31.542Z,82.10
2023-05-02T05:06:34.312Z,82.20
2023-05-02T05:08:37.073Z,82.20
2023-05-02T05:10:40.773Z,81.30
2023-05-02T05:12:43.579Z,81.60
2023-05-02T05:14:46.412Z,81.00
2023-05-02T05:16:49.236Z,81.60
2023-05-02T05:18:53.965Z,81.90
2023-05-02T05:20:56.838Z,81.00
2023-05-02T05:22:59.599Z,81.00
2023-05-02T05:25:02.510Z,80.60
2023-05-02T05:27:05.374Z,80.70
2023-05-02T05:29:08.881Z,81.20
2023-05-02T05:31:16.043Z,80.80
2023-05-02T05:33:19.536Z,81.80
2023-05-02T05:35:24.569Z,82.90
2023-05-02T05:37:27.313Z,83.70
2023-05-02T05:39:30.118Z,83.50
2023-05-02T05:41:33.460Z,83.80
2023-05-02T05:43:38.138Z,84.30
2023-05-02T05:45:41.174Z,84.10
2023-05-02T05:47:43.999Z,84.20
2023-05-02T05:49:46.797Z,84.30
2023-05-02T05:51:50.924Z,84.50
2023-05-02T05:53:56.277Z,84.60
2023-05-02T05:55:59.178Z,84.50
2023-05-02T05:58:01.984Z,83.90
2023-05-02T06:00:05.534Z,84.40
2023-05-02T06:02:08.417Z,84.50
2023-05-02T06:04:11.336Z,84.50
2023-05-02T06:06:14.226Z,84.00
2023-05-02T06:08:18.322Z,84.20
2023-05-02T06:10:21.152Z,83.50
2023-05-02T06:12:24.058Z,82.40
2023-05-02T06:14:26.849Z,83.30
2023-05-02T06:16:29.602Z,83.80
2023-05-02T06:18:32.383Z,83.10
2023-05-02T06:20:37.084Z,83.40
2023-05-02T06:22:40.603Z,82.40
2023-05-02T06:24:44.687Z,83.00
2023-05-02T06:26:47.471Z,83.10
2023-05-02T06:28:50.254Z,82.30
2023-05-02T06:30:58.504Z,82.80
2023-05-02T06:33:01.421Z,82.90
2023-05-02T06:35:04.675Z,83.40
2023-05-02T06:37:07.474Z,83.50
2023-05-02T06:39:10.272Z,83.70
2023-05-02T06:41:18.226Z,82.70
2023-05-02T06:43:21.700Z,83.70
2023-05-02T06:45:24.507Z,83.80
2023-05-02T06:47:28.324Z,84.10
2023-05-02T06:49:31.541Z,84.30
2023-05-02T06:51:34.270Z,85.50
2023-05-02T06:53:37.032Z,86.40
2023-05-02T06:55:39.832Z,86.60
2023-05-02T06:57:43.979Z,86.70
2023-05-02T06:59:46.696Z,86.60
2023-05-02T07:01:49.474Z,85.60
2023-05-02T07:03:52.352Z,84.00
2023-05-02T07:05:55.123Z,85.00
2023-05-02T07:07:57.858Z,84.60
2023-05-02T07:10:00.924Z,85.10
2023-05-02T07:12:06.756Z,85.40
2023-05-02T07:14:11.172Z,84.80
2023-05-02T07:16:14.368Z,83.50
2023-05-02T07:18:17.280Z,83.50
2023-05-02T07:20:20.454Z,84.10
2023-05-02T07:22:23.238Z,83.50
2023-05-02T07:24:26.323Z,83.50
2023-05-02T07:26:29.649Z,83.20
2023-05-02T07:28:34.507Z,83.80
2023-05-02T07:30:38.808Z,84.00
2023-05-02T07:32:41.552Z,84.00
2023-05-02T07:34:44.394Z,84.40
2023-05-02T07:36:47.124Z,84.70
2023-05-02T07:38:49.940Z,84.10
2023-05-02T07:40:52.689Z,83.90
2023-05-02T07:42:55.445Z,83.80
2023-05-02T07:44:59.126Z,83.50
2023-05-02T07:47:03.259Z,83.30
2023-05-02T07:49:06.090Z,82.60
2023-05-02T07:51:09.671Z,83.20
2023-05-02T07:53:12.530Z,81.30
2023-05-02T07:55:15.407Z,81.80
2023-05-02T07:57:18.217Z,81.40
2023-05-02T07:59:21.024Z,81.60
2023-05-02T08:01:23.754Z,79.40
2023-05-02T08:03:28.246Z,81.10
2023-05-02T08:05:31.255Z,81.10
2023-05-02T08:07:35.294Z,81.00
2023-05-02T08:09:38.001Z,81.00
2023-05-02T08:11:40.722Z,80.10
2023-05-02T08:13:43.517Z,79.90
2023-05-02T08:15:46.592Z,80.20
2023-05-02T08:17:49.400Z,80.50
2023-05-02T08:19:53.480Z,80.70
2023-05-02T08:21:56.237Z,80.40
2023-05-02T08:23:59.852Z,81.00
2023-05-02T08:26:02.662Z,80.90
2023-05-02T08:28:05.614Z,81.50
2023-05-02T08:30:09.525Z,82.00
2023-05-02T08:32:12.364Z,83.30
2023-05-02T08:34:15.405Z,84.20
2023-05-02T08:36:19.835Z,86.40
2023-05-02T08:38:22.593Z,87.70
2023-05-02T08:40:38.208Z,88.90
2023-05-02T08:42:44.941Z,89.10
2023-05-02T08:44:47.897Z,89.40
2023-05-02T08:46:52.003Z,89.30
2023-05-02T08:48:58.944Z,88.70
2023-05-02T08:51:02.808Z,89.20
2023-05-02T08:53:07.870Z,88.30
2023-05-02T08:55:12.005Z,88.20
2023-05-02T08:57:14.886Z,86.30
2023-05-02T08:59:17.631Z,86.60
2023-05-02T09:01:23.974Z,86.20
2023-05-02T09:03:31.561Z,84.70
2023-05-02T09:05:41.654Z,85.80
2023-05-02T09:07:47.321Z,85.40
2023-05-02T09:09:51.444Z,84.10
2023-05-02T09:11:54.378Z,84.90
2023-05-02T09:13:58.951Z,86.40
2023-05-02T09:16:03.458Z,86.40
2023-05-02T09:18:07.349Z,87.70
2023-05-02T09:20:11.999Z,88.00
2023-05-02T09:22:24.206Z,88.70
2023-05-02T09:24:27.241Z,90.00
2023-05-02T09:26:33.312Z,89.20
2023-05-02T09:28:41.005Z,88.20
2023-05-02T09:30:44.020Z,89.30
2023-05-02T09:32:47.320Z,89.60
2023-05-02T09:35:08.493Z,88.50
2023-05-02T09:37:11.468Z,88.40
2023-05-02T09:39:16.083Z,87.30
2023-05-02T09:41:19.970Z,87.50
2023-05-02T09:43:24.120Z,89.20
2023-05-02T09:45:27.566Z,90.00
2023-05-02T09:47:30.761Z,90.40
2023-05-02T09:49:41.730Z,90.20
2023-05-02T09:51:44.633Z,89.90
2023-05-02T09:53:48.255Z,90.20
2023-05-02T09:56:01.037Z,89.40
2023-05-02T09:58:04.088Z,89.40
2023-05-02T10:00:10.366Z,90.40
2023-05-02T10:02:13.486Z,90.60
2023-05-02T10:04:18.806Z,90.70
2023-05-02T10:06:22.687Z,90.60
2023-05-02T10:08:28.452Z,90.20
2023-05-02T10:10:33.878Z,90.20
2023-05-02T10:12:38.757Z,90.20
2023-05-02T10:14:42.369Z,88.20
2023-05-02T10:16:54.993Z,88.00
2023-05-02T10:19:03.769Z,88.80
2023-05-02T10:21:09.531Z,88.00
2023-05-02T10:23:13.291Z,89.40
2023-05-02T10:25:16.329Z,89.60
2023-05-02T10:27:19.533Z,89.80
2023-05-02T10:29:23.632Z,89.40
2023-05-02T10:31:27.186Z,89.60
2023-05-02T10:33:32.342Z,89.80
2023-05-02T10:35:37.265Z,90.10
2023-05-02T10:37:41.644Z,90.20
2023-05-02T10:39:44.470Z,90.30
2023-05-02T10:41:47.586Z,89.60
2023-05-02T10:43:50.939Z,87.90
2023-05-02T10:45:54.772Z,88.00
2023-05-02T10:48:19.073Z,86.00
2023-05-02T10:50:24.008Z,85.70
2023-05-02T10:52:27.574Z,85.90
2023-05-02T10:54:30.295Z,84.80
2023-05-02T10:56:33.199Z,85.30
2023-05-02T10:58:36.117Z,84.90
2023-05-02T11:00:39.035Z,83.20
2023-05-02T11:02:51.716Z,84.80
2023-05-02T11:05:03.094Z,83.60
2023-05-02T11:07:20.035Z,84.10
2023-05-02T11:09:34.066Z,84.20
2023-05-02T11:11:41.030Z,84.20
2023-05-02T11:13:50.278Z,83.50
2023-05-02T11:15:57.785Z,82.10
2023-05-02T11:18:01.353Z,82.50
2023-05-02T11:20:28.189Z,82.70
2023-05-02T11:22:35.449Z,81.50
2023-05-02T11:24:38.911Z,78.70
2023-05-02T11:26:41.640Z,78.40
2023-05-02T11:28:48.057Z,80.00
2023-05-02T11:30:51.119Z,80.00
2023-05-02T11:33:20.242Z,77.50
2023-05-02T11:35:24.571Z,77.90
2023-05-02T11:39:31.480Z,78.00
2023-05-02T11:41:40.591Z,76.80
2023-05-02T11:43:43.386Z,77.70
2023-05-02T11:45:46.371Z,78.50
2023-05-02T11:47:49.938Z,75.70
2023-05-02T11:49:52.751Z,76.30
2023-05-02T11:51:55.549Z,76.50
2023-05-02T11:53:58.351Z,77.10
2023-05-02T11:56:04.847Z,77.10
2023-05-02T11:58:13.811Z,78.60
2023-05-02T12:00:17.952Z,77.50
2023-05-02T12:02:21.228Z,77.20
2023-05-02T12:04:25.682Z,76.00
2023-05-02T12:06:28.513Z,78.20
2023-05-02T12:08:31.953Z,76.60
2023-05-02T12:10:38.474Z,75.80
2023-05-02T12:12:44.500Z,76.60
2023-05-02T12:14:47.330Z,77.30
2023-05-02T12:16:50.088Z,77.30
2023-05-02T12:18:53.184Z,78.50
2023-05-02T12:20:57.174Z,77.00
2023-05-02T12:23:00.081Z,77.10
2023-05-02T12:25:04.527Z,77.80
2023-05-02T12:27:12.012Z,75.50
2023-05-02T12:29:16.176Z,76.90
2023-05-02T12:31:19.704Z,76.20
2023-05-02T12:33:22.719Z,76.70
2023-05-02T12:35:25.930Z,76.60
2023-05-02T12:37:29.516Z,76.50
2023-05-02T12:39:39.376Z,77.00
2023-05-02T12:41:43.742Z,77.40
2023-05-02T12:43:48.250Z,77.80
2023-05-02T12:46:09.955Z,77.10
2023-05-02T12:48:20.409Z,76.90
2023-05-02T12:50:37.103Z,76.90
2023-05-02T12:52:50.514Z,77.00
2023-05-02T12:54:53.476Z,77.50
2023-05-02T12:56:56.238Z,77.50
2023-05-02T12:59:01.308Z,75.40
2023-05-02T13:01:05.685Z,77.30
2023-05-02T13:03:09.391Z,77.50
2023-05-02T13:05:15.866Z,77.80
2023-05-02T13:07:18.732Z,77.40
2023-05-02T13:09:21.516Z,77.40
2023-05-02T13:11:24.510Z,77.60
2023-05-02T13:13:27.320Z,78.10
2023-05-02T13:15:30.450Z,77.40
2023-05-02T13:17:35.198Z,77.40
2023-05-02T13:19:40.514Z,77.60
2023-05-02T13:21:47.263Z,76.90
2023-05-02T13:23:50.864Z,77.70
2023-05-02T13:25:53.615Z,78.00
2023-05-02T13:27:56.328Z,78.40
2023-05-02T13:29:59.330Z,77.60
2023-05-02T13:32:02.635Z,76.90
2023-05-02T13:34:06.964Z,76.80
2023-05-02T13:36:09.667Z,76.60
2023-05-02T13:38:12.693Z,76.80
2023-05-02T13:40:15.508Z,75.50
2023-05-02T13:42:18.287Z,77.10
2023-05-02T13:44:21.165Z,76.60
2023-05-02T13:46:24.129Z,77.40
2023-05-02T13:48:26.898Z,76.50
2023-05-02T13:50:31.053Z,76.90
2023-05-02T13:52:33.813Z,77.50
2023-05-02T13:54:36.552Z,78.10
2023-05-02T13:56:39.752Z,78.30
2023-05-02T13:58:42.756Z,78.70
2023-05-02T14:00:45.512Z,78.70
2023-05-02T14:02:48.620Z,77.80
2023-05-02T14:04:51.801Z,78.70
2023-05-02T14:06:55.941Z,77.20
2023-05-02T14:08:58.675Z,77.30
2023-05-02T14:11:01.528Z,77.20
2023-05-02T14:13:04.317Z,77.50
2023-05-02T14:15:08.219Z,77.80
2023-05-02T14:17:11.021Z,77.80
2023-05-02T14:19:13.991Z,77.60
2023-05-02T14:21:16.756Z,77.80
2023-05-02T14:23:20.840Z,77.60
2023-05-02T14:25:23.689Z,77.30
2023-05-02T14:27:26.798Z,75.60
2023-05-02T14:29:29.497Z,75.80
2023-05-02T14:31:32.321Z,75.30
2023-05-02T14:33:35.081Z,75.80
2023-05-02T14:35:37.832Z,75.10
2023-05-02T14:37:40.618Z,76.00
2023-05-02T14:39:51.691Z,75.90
2023-05-02T14:41:56.279Z,74.90
2023-05-02T14:43:59.042Z,74.50
2023-05-02T14:46:02.700Z,74.20
2023-05-02T14:48:05.993Z,73.90
2023-05-02T14:50:09.559Z,75.50
2023-05-02T14:52:12.324Z,73.70
2023-05-02T14:54:16.692Z,72.90
2023-05-02T14:56:20.808Z,74.70
2023-05-02T14:58:23.512Z,74.70
2023-05-02T15:00:26.592Z,74.90
2023-05-02T15:02:29.339Z,75.00
2023-05-02T15:04:32.469Z,74.00
2023-05-02T15:06:36.343Z,75.20
2023-05-02T15:08:39.579Z,74.80
2023-05-02T15:10:42.378Z,75.20
2023-05-02T15:12:50.661Z,74.50
2023-05-02T15:14:53.392Z,74.90
2023-05-02T15:16:56.171Z,74.60
2023-05-02T15:18:59.019Z,74.20
2023-05-02T15:21:01.824Z,74.40
2023-05-02T15:23:05.060Z,72.70
2023-05-02T15:25:08.971Z,69.90
2023-05-02T15:27:11.948Z,71.60
2023-05-02T15:29:16.156Z,70.90
2023-05-02T15:31:18.893Z,71.60
2023-05-02T15:33:21.650Z,72.00
2023-05-02T15:35:24.704Z,71.50
2023-05-02T15:37:27.513Z,71.70
2023-05-02T15:39:30.269Z,72.30
2023-05-02T15:41:33.248Z,72.10
2023-05-02T15:43:37.305Z,71.80
2023-05-02T15:45:41.347Z,72.20
2023-05-02T15:47:44.111Z,71.60
2023-05-02T15:49:47.360Z,70.20
2023-05-02T15:51:50.129Z,70.60
2023-05-02T15:53:52.970Z,71.00
2023-05-02T15:55:55.781Z,72.00
2023-05-02T15:57:58.496Z,72.30
2023-05-02T16:00:01.477Z,71.00
2023-05-02T16:02:06.322Z,71.70
2023-05-02T16:04:09.922Z,71.70
2023-05-02T16:06:12.804Z,71.50
2023-05-02T16:08:15.545Z,69.50
2023-05-02T16:10:18.292Z,69.80
2023-05-02T16:12:21.010Z,69.20
2023-05-02T16:14:26.123Z,69.90
2023-05-02T16:16:29.259Z,69.80
2023-05-02T16:18:34.632Z,69.40
2023-05-02T16:20:37.613Z,70.30
2023-05-02T16:22:40.369Z,68.30
2023-05-02T16:24:43.154Z,68.30
2023-05-02T16:26:46.675Z,68.60
2023-05-02T16:28:49.484Z,69.30
2023-05-02T16:30:52.495Z,68.90
2023-05-02T16:32:55.603Z,69.70
2023-05-02T16:34:59.701Z,67.70
2023-05-02T16:37:03.853Z,67.30
2023-05-02T16:39:06.761Z,67.60
2023-05-02T16:41:10.248Z,66.30
2023-05-02T16:43:12.980Z,66.30
2023-05-02T16:45:16.046Z,65.40
2023-05-02T16:47:18.956Z,65.50
2023-05-02T16:49:21.712Z,64.90
2023-05-02T16:51:25.812Z,65.30
2023-05-02T16:53:28.614Z,65.90
2023-05-02T16:55:31.407Z,65.50
2023-05-02T16:57:34.139Z,64.60
2023-05-02T16:59:37.086Z,64.90
2023-05-02T17:01:40.159Z,63.80
2023-05-02T17:03:42.970Z,64.70
2023-05-02T17:05:45.701Z,63.10
2023-05-02T17:07:49.792Z,61.40
2023-05-02T17:09:52.850Z,63.20
2023-05-02T17:11:56.052Z,62.60
2023-05-02T17:13:59.045Z,63.60
2023-05-02T17:16:02.423Z,64.50
2023-05-02T17:18:05.294Z,64.90
2023-05-02T17:20:09.992Z,63.20
2023-05-02T17:22:14.630Z,64.80
2023-05-02T17:24:18.695Z,64.10
2023-05-02T17:26:22.065Z,64.30
2023-05-02T17:28:28.041Z,63.80
2023-05-02T17:30:32.113Z,63.20
2023-05-02T17:32:37.351Z,63.40
2023-05-02T17:34:40.109Z,63.30
2023-05-02T17:36:43.639Z,62.90
2023-05-02T17:38:46.403Z,61.70
2023-05-02T17:40:50.456Z,61.80
2023-05-02T17:42:53.319Z,62.20
2023-05-02T17:44:56.230Z,61.50
2023-05-02T17:46:59.013Z,60.80
2023-05-02T17:49:01.823Z,61.40
2023-05-02T17:51:05.561Z,62.50
2023-05-02T17:53:09.279Z,61.10
2023-05-02T17:55:12.067Z,60.80
2023-05-02T17:57:16.148Z,61.10
2023-05-02T17:59:18.929Z,60.90
2023-05-02T18:01:21.668Z,61.70
2023-05-02T18:03:24.722Z,61.80
2023-05-02T18:05:28.038Z,62.20
2023-05-02T18:07:31.503Z,62.30
2023-05-02T18:09:34.288Z,62.00
2023-05-02T18:11:37.556Z,62.40
2023-05-02T18:13:41.629Z,63.00
2023-05-02T18:15:44.421Z,62.50
2023-05-02T18:17:47.203Z,61.80
2023-05-02T18:19:50.390Z,60.70
2023-05-02T18:21:53.491Z,61.00
2023-05-02T18:23:56.820Z,60.50
2023-05-02T18:25:59.817Z,60.90
2023-05-02T18:28:02.728Z,60.20
2023-05-02T18:30:08.267Z,61.60
2023-05-02T18:32:11.042Z,61.00
2023-05-02T18:34:13.782Z,61.30
2023-05-02T18:36:19.387Z,60.90
2023-05-02T18:38:22.401Z,60.20
2023-05-02T18:40:25.300Z,59.80
2023-05-02T18:42:28.088Z,59.90
2023-05-02T18:44:31.169Z,61.20
2023-05-02T18:46:35.297Z,61.40
2023-05-02T18:48:38.152Z,61.10
2023-05-02T18:50:41.623Z,60.80
2023-05-02T18:52:44.445Z,61.20
2023-05-02T18:54:47.178Z,61.30
2023-05-02T18:56:50.430Z,61.30
2023-05-02T18:58:56.388Z,60.40
2023-05-02T19:00:59.173Z,61.10
2023-05-02T19:03:03.807Z,61.20
2023-05-02T19:05:07.222Z,61.30
2023-05-02T19:07:10.048Z,61.60
2023-05-02T19:09:13.525Z,61.60
2023-05-02T19:11:16.357Z,61.40
2023-05-02T19:13:19.291Z,61.50
2023-05-02T19:15:23.867Z,61.70
2023-05-02T19:17:26.799Z,61.60
2023-05-02T19:19:31.148Z,62.20
2023-05-02T19:21:34.193Z,62.00
2023-05-02T19:23:37.547Z,62.10
2023-05-02T19:25:40.458Z,61.90
2023-05-02T19:27:45.204Z,62.00
2023-05-02T19:29:48.016Z,61.70
2023-05-02T19:31:50.877Z,61.80
2023-05-02T19:33:54.760Z,62.10
2023-05-02T19:35:58.825Z,62.10
2023-05-02T19:38:01.738Z,61.90
2023-05-02T19:40:05.121Z,61.00
2023-05-02T19:42:08.096Z,61.30
2023-05-02T19:44:10.886Z,62.10
2023-05-02T19:46:15.278Z,62.10
2023-05-02T19:48:18.308Z,62.20
2023-05-02T19:50:21.076Z,62.30
2023-05-02T19:52:25.379Z,62.00
2023-05-02T19:54:28.109Z,61.90
2023-05-02T19:56:30.989Z,62.00
2023-05-02T19:58:33.968Z,61.70
2023-05-02T20:00:37.376Z,61.90
2023-05-02T20:02:40.310Z,62.10
2023-05-02T20:04:43.179Z,62.30
2023-05-02T20:06:46.151Z,61.70
2023-05-02T20:08:51.044Z,62.10
2023-05-02T20:10:53.942Z,62.10
2023-05-02T20:12:56.747Z,62.80
2023-05-02T20:14:59.488Z,63.30
2023-05-02T20:17:02.398Z,63.60
2023-05-02T20:19:05.361Z,63.80
2023-05-02T20:21:08.466Z,64.00
2023-05-02T20:23:11.257Z,64.20
2023-05-02T20:25:15.984Z,64.60
2023-05-02T20:27:18.757Z,66.00
2023-05-02T20:29:21.529Z,65.10
2023-05-02T20:31:24.426Z,66.30
2023-05-02T20:33:36.862Z,65.20
2023-05-02T20:35:44.595Z,66.50
2023-05-02T20:37:48.565Z,65.50
2023-05-02T20:39:51.355Z,66.40
2023-05-02T20:41:58.366Z,66.40
2023-05-02T20:44:02.702Z,66.80
2023-05-02T20:46:09.987Z,67.10
2023-05-02T20:48:16.279Z,67.00
2023-05-02T20:50:19.270Z,66.80
2023-05-02T20:52:22.250Z,66.70
2023-05-02T20:54:25.107Z,66.70
2023-05-02T20:56:27.917Z,67.70
2023-05-02T20:58:32.228Z,67.50
2023-05-02T21:00:35.004Z,67.50
2023-05-02T21:02:37.889Z,67.10
2023-05-02T21:04:42.071Z,67.40
2023-05-02T21:06:44.982Z,67.70
2023-05-02T21:08:48.263Z,68.00
2023-05-02T21:10:51.417Z,68.10
2023-05-02T21:12:54.368Z,68.20
2023-05-02T21:14:58.394Z,68.40
2023-05-02T21:17:01.128Z,68.50
2023-05-02T21:19:04.001Z,68.40
2023-05-02T21:21:06.796Z,68.00
2023-05-02T21:23:11.184Z,67.50
2023-05-02T21:25:14.060Z,66.10
2023-05-02T21:27:17.070Z,66.20
2023-05-02T21:29:19.864Z,66.30
2023-05-02T21:31:24.080Z,66.10
2023-05-02T21:33:26.847Z,66.40
2023-05-02T21:35:33.913Z,66.20
2023-05-02T21:37:36.700Z,66.20
2023-05-02T21:39:39.872Z,66.30
2023-05-02T21:41:42.683Z,66.30
2023-05-02T21:43:45.682Z,65.70
2023-05-02T21:45:49.834Z,65.50
2023-05-02T21:47:54.237Z,65.40
2023-05-02T21:49:57.463Z,65.40
2023-05-02T21:52:00.270Z,65.30
2023-05-02T21:54:02.987Z,65.40
2023-05-02T21:56:06.791Z,65.50
2023-05-02T21:58:12.262Z,65.80
2023-05-02T22:00:15.835Z,66.70
2023-05-02T22:02:18.714Z,66.40
2023-05-02T22:04:23.773Z,66.40
2023-05-02T22:06:26.788Z,66.50
2023-05-02T22:08:29.584Z,66.20
2023-05-02T22:10:32.350Z,66.10
2023-05-02T22:12:35.190Z,66.20
2023-05-02T22:14:45.353Z,66.10
2023-05-02T22:16:48.799Z,66.10
2023-05-02T22:18:51.557Z,66.10
2023-05-02T22:20:57.278Z,65.80
2023-05-02T22:23:00.030Z,65.70
2023-05-02T22:25:03.134Z,65.30
2023-05-02T22:27:07.489Z,65.30
2023-05-02T22:29:10.168Z,65.10
2023-05-02T22:31:14.160Z,65.20
2023-05-02T22:33:17.194Z,65.20
2023-05-02T22:35:19.951Z,64.90
2023-05-02T22:37:24.071Z,65.00
2023-05-02T22:39:27.701Z,65.20
2023-05-02T22:41:31.820Z,65.40
2023-05-02T22:43:34.540Z,65.60
2023-05-02T22:45:38.330Z,65.40
2023-05-02T22:47:41.359Z,65.40
2023-05-02T22:49:44.566Z,65.60
2023-05-02T22:51:48.016Z,65.40
2023-05-02T22:53:54.073Z,65.50
2023-05-02T22:55:56.887Z,64.80
2023-05-02T22:57:59.593Z,65.00
2023-05-02T23:00:02.433Z,65.00
2023-05-02T23:02:05.524Z,64.60
2023-05-02T23:04:08.705Z,65.00
2023-05-02T23:06:11.783Z,65.00
2023-05-02T23:08:14.982Z,64.40
2023-05-02T23:10:19.062Z,64.80
2023-05-02T23:12:21.789Z,65.00
2023-05-02T23:14:24.575Z,64.90
2023-05-02T23:16:27.522Z,64.80
2023-05-02T23:18:30.321Z,66.00
2023-05-02T23:20:33.996Z,66.60
2023-05-02T23:22:37.629Z,67.00
2023-05-02T23:24:40.482Z,67.40
2023-05-02T23:26:44.561Z,68.00
2023-05-02T23:28:47.376Z,68.10
2023-05-02T23:30:50.293Z,68.20
2023-05-02T23:32:53.209Z,68.40
2023-05-02T23:34:56.296Z,68.40
2023-05-02T23:36:59.108Z,68.50
2023-05-02T23:39:02.249Z,68.40
2023-05-02T23:41:05.208Z,68.00
2023-05-02T23:43:09.867Z,68.00
2023-05-02T23:45:13.267Z,68.10
2023-05-02T23:47:16.030Z,67.90
2023-05-02T23:49:18.807Z,68.30
2023-05-02T23:51:21.585Z,68.40
2023-05-02T23:53:24.318Z,68.60
2023-05-02T23:55:27.063Z,68.90
2023-05-02T23:57:30.477Z,68.70
2023-05-02T23:59:34.520Z,68.60
